createdAt,value
2022-10-05T00:04:15.247Z,12.07
2022-10-05T00:09:19.292Z,10.57
2022-10-05T00:14:22.925Z,8.48
2022-10-05T00:19:29.341Z,9.27
2022-10-05T00:24:31.689Z,9.85
2022-10-05T00:29:35.276Z,10.57
2022-10-05T00:34:39.098Z,9.25
2022-10-05T00:39:43.237Z,8.95
2022-10-05T00:44:51.174Z,10.13
2022-10-05T00:50:01.175Z,9.18
2022-10-05T00:55:08.900Z,12.13
2022-10-05T01:00:13.398Z,10.02
2022-10-05T01:05:22.995Z,10.52
2022-10-05T01:10:27.816Z,9.52
2022-10-05T01:15:32.723Z,11.30
2022-10-05T01:20:40.957Z,10.10
2022-10-05T01:25:48.260Z,8.48
2022-10-05T01:30:55.897Z,9.82
2022-10-05T01:36:01.245Z,11.18
2022-10-05T01:41:07.055Z,8.48
2022-10-05T01:46:15.792Z,10.98
2022-10-05T01:51:23.201Z,10.60
2022-10-05T01:56:31.182Z,15.27
2022-10-05T02:01:36.995Z,10.38
2022-10-05T02:06:41.402Z,8.77
2022-10-05T02:11:46.414Z,11.98
2022-10-05T02:16:51.494Z,13.07
2022-10-05T02:21:55.760Z,13.10
2022-10-05T02:26:58.775Z,12.50
2022-10-05T02:32:04.795Z,12.90
2022-10-05T02:37:21.277Z,13.57
2022-10-05T02:42:26.018Z,13.60
2022-10-05T02:47:33.430Z,13.32
2022-10-05T02:52:40.960Z,15.85
2022-10-05T02:57:47.459Z,19.02
2022-10-05T03:02:55.409Z,16.63
2022-10-05T03:08:01.716Z,15.75
2022-10-05T03:13:07.076Z,14.55
2022-10-05T03:18:13.590Z,17.75
2022-10-05T03:23:20.139Z,17.45
2022-10-05T03:28:26.303Z,13.48
2022-10-05T03:33:32.276Z,16.15
2022-10-05T03:38:40.300Z,14.90
2022-10-05T03:44:03.181Z,16.33
2022-10-05T03:49:10.505Z,15.00
2022-10-05T03:54:16.950Z,15.55
2022-10-05T03:59:21.716Z,19.58
2022-10-05T04:04:27.441Z,16.00
2022-10-05T04:09:34.070Z,18.00
2022-10-05T04:14:38.731Z,17.90
2022-10-05T04:19:45.110Z,20.35
2022-10-05T04:24:50.467Z,17.40
2022-10-05T04:29:56.113Z,16.27
2022-10-05T04:35:04.130Z,18.13
2022-10-05T04:40:16.445Z,16.15
2022-10-05T04:45:24.653Z,18.42
2022-10-05T04:50:35.573Z,16.92
2022-10-05T04:55:40.979Z,15.02
2022-10-05T05:00:49.166Z,15.50
2022-10-05T05:06:16.434Z,16.05
2022-10-05T05:11:24.703Z,15.55
2022-10-05T05:16:32.617Z,16.02
2022-10-05T05:21:40.353Z,23.23
2022-10-05T05:26:50.734Z,15.68
2022-10-05T05:31:56.440Z,17.50
2022-10-05T05:37:02.430Z,14.15
2022-10-05T05:42:17.657Z,16.90
2022-10-05T05:47:21.540Z,17.10
2022-10-05T05:52:26.546Z,14.55
2022-10-05T05:57:30.694Z,14.85
2022-10-05T06:02:38.683Z,13.40
2022-10-05T06:07:42.532Z,15.40
2022-10-05T06:12:46.901Z,12.93
2022-10-05T06:17:52.651Z,12.40
2022-10-05T06:22:56.706Z,12.65
2022-10-05T06:28:02.144Z,12.68
2022-10-05T06:33:07.974Z,15.13
2022-10-05T06:38:16.250Z,10.57
2022-10-05T06:43:25.986Z,13.80
2022-10-05T06:48:32.558Z,10.45
2022-10-05T06:53:41.540Z,11.30
2022-10-05T06:58:48.633Z,11.52
2022-10-05T07:03:58.256Z,12.32
2022-10-05T07:09:07.327Z,9.68
2022-10-05T07:14:14.975Z,8.45
2022-10-05T07:19:23.141Z,7.43
2022-10-05T07:24:31.171Z,7.40
2022-10-05T07:29:35.483Z,6.93
2022-10-05T07:34:43.429Z,8.43
2022-10-05T07:40:06.031Z,7.05
2022-10-05T07:45:11.186Z,6.30
2022-10-05T07:50:19.521Z,5.72
2022-10-05T07:55:25.202Z,5.85
2022-10-05T08:00:31.050Z,5.43
2022-10-05T08:05:34.277Z,6.47
2022-10-05T08:15:42.908Z,7.13
2022-10-05T08:20:47.402Z,6.32
2022-10-05T08:25:58.189Z,5.90
2022-10-05T08:31:04.817Z,6.50
2022-10-05T08:36:10.174Z,5.55
2022-10-05T08:41:18.457Z,4.72
2022-10-05T08:46:35.819Z,4.10
2022-10-05T08:51:56.323Z,6.22
2022-10-05T08:57:11.452Z,5.93
2022-10-05T09:02:20.595Z,5.07
2022-10-05T09:07:36.842Z,4.70
2022-10-05T09:12:57.050Z,4.13
2022-10-05T09:18:13.316Z,6.13
2022-10-05T09:23:26.283Z,3.88
2022-10-05T09:28:32.764Z,5.65
2022-10-05T09:33:51.800Z,5.53
2022-10-05T09:39:18.166Z,6.30
2022-10-05T09:44:30.325Z,3.67
2022-10-05T09:49:54.801Z,4.45
2022-10-05T09:55:16.005Z,6.75
2022-10-05T10:00:29.035Z,5.60
2022-10-05T10:05:39.738Z,4.25
2022-10-05T10:10:52.927Z,5.80
2022-10-05T10:16:05.997Z,5.75
2022-10-05T10:21:16.637Z,5.20
2022-10-05T10:26:51.885Z,6.78
2022-10-05T10:32:03.643Z,6.78
2022-10-05T10:37:12.286Z,4.82
2022-10-05T10:42:26.175Z,4.40
2022-10-05T10:47:51.427Z,4.70
2022-10-05T10:53:01.545Z,3.85
2022-10-05T10:58:16.951Z,3.70
2022-10-05T11:03:40.385Z,5.45
2022-10-05T11:08:57.613Z,3.78
2022-10-05T11:14:23.869Z,5.45
2022-10-05T11:19:46.306Z,3.97
2022-10-05T11:25:20.748Z,3.13
2022-10-05T11:30:51.314Z,4.57
2022-10-05T11:36:04.208Z,3.70
2022-10-05T11:41:17.123Z,5.20
2022-10-05T11:46:25.400Z,2.42
2022-10-05T11:51:37.017Z,2.92
2022-10-05T11:56:42.118Z,3.00
2022-10-05T12:01:49.409Z,4.57
2022-10-05T12:06:59.929Z,3.17
2022-10-05T12:12:07.695Z,2.47
2022-10-05T12:17:13.511Z,3.15
2022-10-05T12:22:19.921Z,6.07
2022-10-05T12:27:25.544Z,4.05
2022-10-05T12:32:34.728Z,2.25
2022-10-05T12:37:46.642Z,3.25
2022-10-05T12:42:51.850Z,3.80
2022-10-05T12:48:07.136Z,2.83
2022-10-05T12:53:18.362Z,4.00
2022-10-05T12:58:26.385Z,3.53
2022-10-05T13:03:31.819Z,2.70
2022-10-05T13:08:38.795Z,3.22
2022-10-05T13:13:44.349Z,3.85
2022-10-05T13:18:55.989Z,2.75
2022-10-05T13:24:02.438Z,4.10
2022-10-05T13:29:10.324Z,3.83
2022-10-05T13:34:18.874Z,3.28
2022-10-05T13:39:31.520Z,3.13
2022-10-05T13:44:36.034Z,2.05
2022-10-05T13:49:42.002Z,2.22
2022-10-05T13:54:48.597Z,3.83
2022-10-05T13:59:54.362Z,2.92
2022-10-05T14:05:01.173Z,3.35
2022-10-05T14:10:08.070Z,2.95
2022-10-05T14:15:20.055Z,2.85
2022-10-05T14:20:26.984Z,4.82
2022-10-05T14:25:31.142Z,3.55
2022-10-05T14:30:34.953Z,2.13
2022-10-05T14:35:45.844Z,3.28
2022-10-05T14:41:03.065Z,5.22
2022-10-05T14:46:24.963Z,2.45
2022-10-05T14:51:32.738Z,3.00
2022-10-05T14:56:42.254Z,6.10
2022-10-05T15:01:49.449Z,2.15
2022-10-05T15:06:58.463Z,5.43
2022-10-05T15:12:04.483Z,3.97
2022-10-05T15:17:13.491Z,1.75
2022-10-05T15:22:28.892Z,3.17
2022-10-05T15:27:39.362Z,2.88
2022-10-05T15:32:48.398Z,3.78
2022-10-05T15:37:53.664Z,2.05
2022-10-05T15:42:59.844Z,1.80
2022-10-05T15:48:04.006Z,5.05
2022-10-05T15:53:11.925Z,3.92
2022-10-05T15:58:41.418Z,4.70
2022-10-05T16:03:52.012Z,2.35
2022-10-05T16:09:01.563Z,3.35
2022-10-05T16:14:12.643Z,3.00
2022-10-05T16:19:20.066Z,4.82
2022-10-05T16:24:26.281Z,5.75
2022-10-05T16:29:34.775Z,3.13
2022-10-05T16:34:45.079Z,6.75
2022-10-05T16:39:51.191Z,2.72
2022-10-05T16:44:58.401Z,4.32
2022-10-05T16:50:04.728Z,2.70
2022-10-05T16:55:12.125Z,5.93
2022-10-05T17:00:21.155Z,5.45
2022-10-05T17:05:33.088Z,4.40
2022-10-05T17:10:42.073Z,2.85
2022-10-05T17:15:54.051Z,4.25
2022-10-05T17:21:02.443Z,2.90
2022-10-05T17:26:09.742Z,2.75
2022-10-05T17:31:18.038Z,8.70
2022-10-05T17:36:20.433Z,4.80
2022-10-05T17:41:23.890Z,5.30
2022-10-05T17:46:39.525Z,3.17
2022-10-05T17:52:12.888Z,3.80
2022-10-05T17:57:18.289Z,2.85
2022-10-05T18:02:26.564Z,5.50
2022-10-05T18:07:28.956Z,6.38
2022-10-05T18:12:49.077Z,3.30
2022-10-05T18:17:55.934Z,3.35
2022-10-05T18:23:16.951Z,3.35
2022-10-05T18:28:22.194Z,5.20
2022-10-05T18:33:34.482Z,3.10
2022-10-05T18:38:47.371Z,2.47
2022-10-05T18:43:53.773Z,4.13
2022-10-05T18:49:05.349Z,3.90
2022-10-05T18:54:13.603Z,3.30
2022-10-05T18:59:24.120Z,3.17
2022-10-05T19:04:33.493Z,5.13
2022-10-05T19:09:44.428Z,3.72
2022-10-05T19:14:52.259Z,2.22
2022-10-05T19:20:07.788Z,5.35
2022-10-05T19:25:20.896Z,4.55
2022-10-05T19:30:24.121Z,2.58
2022-10-05T19:35:31.101Z,2.53
2022-10-05T19:40:38.856Z,5.88
2022-10-05T19:45:44.307Z,3.38
2022-10-05T19:50:54.896Z,7.97
2022-10-05T19:55:57.670Z,4.28
2022-10-05T20:01:00.804Z,5.03
2022-10-05T20:11:09.066Z,2.92
2022-10-05T20:16:40.102Z,2.88
2022-10-05T20:21:45.762Z,4.07
2022-10-05T20:27:16.105Z,2.60
2022-10-05T20:32:18.798Z,2.33
2022-10-05T20:37:21.136Z,1.83
2022-10-05T20:42:25.366Z,2.37
2022-10-05T20:47:27.904Z,3.03
2022-10-05T20:52:31.592Z,2.47
2022-10-05T20:57:35.289Z,3.25
2022-10-05T21:02:38.028Z,1.92
2022-10-05T21:07:40.868Z,1.90
2022-10-05T21:12:44.554Z,1.08
2022-10-05T21:17:46.881Z,1.83
2022-10-05T21:22:49.242Z,3.75
2022-10-05T21:27:54.081Z,1.42
2022-10-05T21:32:56.547Z,1.88
2022-10-05T21:37:58.898Z,4.63
2022-10-05T21:43:03.123Z,0.95
2022-10-05T21:48:05.739Z,2.05
2022-10-05T21:53:09.666Z,2.30
2022-10-05T21:58:13.958Z,2.83
2022-10-05T22:03:16.298Z,2.42
2022-10-05T22:08:20.607Z,2.08
2022-10-05T22:13:25.886Z,2.78
2022-10-05T22:18:28.472Z,2.58
2022-10-05T22:23:31.014Z,3.97
2022-10-05T22:28:34.837Z,1.90
2022-10-05T22:33:37.548Z,2.85
2022-10-05T22:38:39.893Z,2.60
2022-10-05T22:43:43.549Z,2.10
2022-10-05T22:48:45.885Z,3.05
2022-10-05T22:53:48.202Z,3.58
2022-10-05T22:58:51.968Z,2.33
2022-10-05T23:03:55.330Z,1.60
2022-10-05T23:14:01.687Z,3.30
2022-10-05T23:19:03.990Z,1.42
2022-10-05T23:24:06.699Z,3.83
2022-10-05T23:29:10.587Z,3.33
2022-10-05T23:34:12.943Z,1.80
2022-10-05T23:39:15.268Z,3.28
2022-10-05T23:44:18.952Z,4.78
2022-10-05T23:49:21.380Z,5.05
2022-10-05T23:54:23.737Z,6.30
2022-10-05T23:59:27.389Z,4.80
